Time;durP1;ratioP1;P1;durP2;ratioP2;P2;SDS_P1;SDS_P2;PMS_P1;PMS_P2;Temp;Humidity;BMP_temperature;BMP_pressure;BME280_temperature;BME280_humidity;BME280_pressure;Samples;Min_cycle;Max_cycle;Signal;HPM_P1;HPM_P2
2024/02/16 00:01:01;;;;;;;1999.90;999.90;;;;;;;;;;5032860;28;20220;-69
2024/02/16 00:03:45;;;;;;;1999.90;999.90;;;;;;;;;;5027702;28;20263;-68
2024/02/16 00:06:31;;;;;;;1999.90;999.90;;;;;;;;;;5034262;28;20283;-69
2024/02/16 00:09:17;;;;;;;1999.90;999.90;;;;;;;;;;5032012;28;25173;-68
2024/02/16 00:12:02;;;;;;;1999.90;999.90;;;;;;;;;;5035263;28;20235;-69
2024/02/16 00:14:47;;;;;;;1999.90;999.90;;;;;;;;;;5028513;28;20340;-68
2024/02/16 00:17:33;;;;;;;1999.90;999.90;;;;;;;;;;5035143;28;20211;-69
2024/02/16 00:20:21;;;;;;;1999.90;999.90;;;;;;;;;;5035420;28;20210;-68
2024/02/16 00:23:06;;;;;;;1999.90;999.90;;;;;;;;;;5035284;28;20226;-68
2024/02/16 00:25:53;;;;;;;1999.90;999.90;;;;;;;;;;5034345;28;20399;-68
2024/02/16 00:28:38;;;;;;;1999.90;999.90;;;;;;;;;;5033135;28;20849;-68
2024/02/16 00:31:23;;;;;;;1999.90;999.90;;;;;;;;;;5033077;28;20721;-69
2024/02/16 00:34:08;;;;;;;1999.90;999.90;;;;;;;;;;5036352;28;20256;-69
2024/02/16 00:36:53;;;;;;;1999.90;999.90;;;;;;;;;;5024511;28;20220;-68
2024/02/16 00:39:40;;;;;;;1999.90;999.90;;;;;;;;;;5034945;28;20212;-68
2024/02/16 00:42:27;;;;;;;1999.90;999.90;;;;;;;;;;5035326;28;20228;-68
2024/02/16 00:45:12;;;;;;;1999.90;999.90;;;;;;;;;;5035056;28;20217;-68
2024/02/16 00:47:58;;;;;;;1999.90;999.90;;;;;;;;;;5035243;28;20211;-70
2024/02/16 00:50:43;;;;;;;1999.90;999.90;;;;;;;;;;5027412;28;20583;-70
2024/02/16 00:53:28;;;;;;;1999.90;999.90;;;;;;;;;;5036001;28;20776;-71
2024/02/16 00:56:13;;;;;;;1999.90;999.90;;;;;;;;;;5036217;28;20231;-70
2024/02/16 00:59:00;;;;;;;1999.90;999.90;;;;;;;;;;5034040;28;20497;-67
2024/02/16 01:01:46;;;;;;;1999.90;999.90;;;;;;;;;;5033186;28;20243;-69
2024/02/16 01:04:30;;;;;;;1999.90;999.90;;;;;;;;;;5031881;28;20214;-69
2024/02/16 01:07:15;;;;;;;1999.90;999.90;;;;;;;;;;5029940;28;20215;-69
2024/02/16 01:10:03;;;;;;;1999.90;999.90;;;;;;;;;;5033494;28;20208;-69
2024/02/16 01:12:48;;;;;;;1999.90;999.90;;;;;;;;;;5030856;28;20231;-69
2024/02/16 01:15:34;;;;;;;1999.90;999.90;;;;;;;;;;5031050;28;20438;-69
2024/02/16 01:18:19;;;;;;;1999.90;999.90;;;;;;;;;;5031692;28;20214;-69
2024/02/16 01:21:04;;;;;;;1999.90;999.90;;;;;;;;;;5021286;28;20279;-69
2024/02/16 01:23:49;;;;;;;1999.90;999.90;;;;;;;;;;5025553;28;20598;-70
2024/02/16 01:26:34;;;;;;;1999.90;999.90;;;;;;;;;;5032844;28;20284;-70
2024/02/16 01:29:18;;;;;;;1999.90;999.90;;;;;;;;;;5030113;28;20273;-70
2024/02/16 01:32:05;;;;;;;1999.90;999.90;;;;;;;;;;5026654;28;20312;-70
2024/02/16 01:34:50;;;;;;;1999.90;999.90;;;;;;;;;;5025290;28;20210;-70
2024/02/16 01:37:35;;;;;;;1999.90;999.90;;;;;;;;;;5031941;28;20590;-70
2024/02/16 01:40:20;;;;;;;1999.90;999.90;;;;;;;;;;5027992;28;20329;-70
2024/02/16 01:43:05;;;;;;;1999.90;999.90;;;;;;;;;;5028425;28;20308;-70
2024/02/16 01:45:50;;;;;;;1999.90;999.90;;;;;;;;;;5028509;28;20728;-70
2024/02/16 01:48:39;;;;;;;1999.90;999.90;;;;;;;;;;5030625;28;20418;-70
2024/02/16 01:51:25;;;;;;;1999.90;999.90;;;;;;;;;;5026208;28;20258;-70
2024/02/16 01:54:10;;;;;;;1999.90;999.90;;;;;;;;;;5029077;28;20243;-70
2024/02/16 01:56:55;;;;;;;1999.90;999.90;;;;;;;;;;5028660;28;20206;-71
2024/02/16 01:59:41;;;;;;;1999.90;999.90;;;;;;;;;;5030157;28;20344;-70
2024/02/16 02:02:27;;;;;;;1999.90;999.90;;;;;;;;;;5026276;28;20233;-70
2024/02/16 02:05:14;;;;;;;1999.90;999.90;;;;;;;;;;5028491;28;20288;-70
2024/02/16 02:07:59;;;;;;;1999.90;999.90;;;;;;;;;;5028069;28;20216;-69
2024/02/16 02:10:44;;;;;;;1999.90;999.90;;;;;;;;;;5027860;28;20227;-70
2024/02/16 02:13:30;;;;;;;1999.90;999.90;;;;;;;;;;5029998;28;20275;-70
2024/02/16 02:16:16;;;;;;;1999.90;999.90;;;;;;;;;;5029265;28;20744;-70
2024/02/16 02:19:01;;;;;;;1999.90;999.90;;;;;;;;;;5027790;28;20589;-69
2024/02/16 02:21:47;;;;;;;1999.90;999.90;;;;;;;;;;5029224;28;20970;-70
2024/02/16 02:24:33;;;;;;;1999.90;999.90;;;;;;;;;;5029967;28;20771;-70
2024/02/16 02:27:18;;;;;;;1999.90;999.90;;;;;;;;;;5028777;28;20260;-70
2024/02/16 02:30:04;;;;;;;1999.90;999.90;;;;;;;;;;5025243;28;20947;-70
2024/02/16 02:32:49;;;;;;;1999.90;999.90;;;;;;;;;;5029587;28;20230;-70
2024/02/16 02:35:34;;;;;;;1999.90;999.90;;;;;;;;;;5027123;28;20291;-69
2024/02/16 02:38:19;;;;;;;1999.90;999.90;;;;;;;;;;5028087;28;20209;-70
2024/02/16 02:41:06;;;;;;;1999.90;999.90;;;;;;;;;;5027984;28;20410;-69
2024/02/16 02:43:51;;;;;;;1999.90;999.90;;;;;;;;;;5029128;28;20584;-69
2024/02/16 02:46:36;;;;;;;1999.90;999.90;;;;;;;;;;5028227;28;20214;-71
2024/02/16 02:49:21;;;;;;;1999.90;999.90;;;;;;;;;;5026943;28;20218;-68
2024/02/16 02:52:06;;;;;;;1999.90;999.90;;;;;;;;;;5028218;28;20345;-71
2024/02/16 02:54:51;;;;;;;1999.90;999.90;;;;;;;;;;5028920;28;20214;-69
2024/02/16 02:57:37;;;;;;;1999.90;999.90;;;;;;;;;;5025293;28;20417;-71
2024/02/16 03:00:22;;;;;;;1999.90;999.90;;;;;;;;;;5032292;28;20205;-70
2024/02/16 03:03:07;;;;;;;1999.90;999.90;;;;;;;;;;5027560;28;20227;-70
2024/02/16 03:05:52;;;;;;;1999.90;999.90;;;;;;;;;;5030868;28;20218;-69
2024/02/16 03:08:38;;;;;;;1999.90;999.90;;;;;;;;;;5031259;28;20297;-69
2024/02/16 03:11:23;;;;;;;1999.90;999.90;;;;;;;;;;5029886;28;20701;-70
2024/02/16 03:14:09;;;;;;;1999.90;999.90;;;;;;;;;;5026417;28;20567;-69
2024/02/16 03:16:54;;;;;;;1999.90;999.90;;;;;;;;;;5028438;28;20275;-69
2024/02/16 03:19:39;;;;;;;1999.90;999.90;;;;;;;;;;5030907;28;20210;-70
2024/02/16 03:22:24;;;;;;;1999.90;999.90;;;;;;;;;;5024034;28;20329;-70
2024/02/16 03:25:09;;;;;;;1999.90;999.90;;;;;;;;;;5025060;28;20221;-70
2024/02/16 03:27:54;;;;;;;1999.90;999.90;;;;;;;;;;5030851;28;20206;-69
2024/02/16 03:30:41;;;;;;;1999.90;999.90;;;;;;;;;;5027273;28;20461;-71
2024/02/16 03:33:26;;;;;;;1999.90;999.90;;;;;;;;;;5030747;28;20246;-71
2024/02/16 03:36:12;;;;;;;1999.90;999.90;;;;;;;;;;5030204;28;20310;-71
2024/02/16 03:38:57;;;;;;;1999.90;999.90;;;;;;;;;;5012741;28;20210;-70
2024/02/16 03:41:42;;;;;;;1999.90;999.90;;;;;;;;;;5030693;28;20250;-71
2024/02/16 03:44:27;;;;;;;1999.90;999.90;;;;;;;;;;5034042;28;20210;-71
2024/02/16 03:47:13;;;;;;;1999.90;999.90;;;;;;;;;;5028189;28;20478;-71
2024/02/16 03:49:59;;;;;;;1999.90;999.90;;;;;;;;;;5033690;28;20218;-71
2024/02/16 03:52:43;;;;;;;1999.90;999.90;;;;;;;;;;5033592;28;20295;-71
2024/02/16 03:55:28;;;;;;;1999.90;999.90;;;;;;;;;;5033504;28;20214;-71
2024/02/16 03:58:13;;;;;;;1999.90;999.90;;;;;;;;;;5027970;28;20222;-71
2024/02/16 04:00:58;;;;;;;1999.90;999.90;;;;;;;;;;5033435;28;20210;-71
2024/02/16 04:03:44;;;;;;;1999.90;999.90;;;;;;;;;;5003385;28;20688;-70
2024/02/16 04:06:29;;;;;;;1999.90;999.90;;;;;;;;;;5014806;28;20341;-71
2024/02/16 04:09:14;;;;;;;1999.90;999.90;;;;;;;;;;4999157;28;20723;-71
2024/02/16 04:11:59;;;;;;;1999.90;999.90;;;;;;;;;;5013553;28;20234;-71
2024/02/16 04:14:44;;;;;;;1999.90;999.90;;;;;;;;;;5005331;28;20648;-71
2024/02/16 04:17:29;;;;;;;1999.90;999.90;;;;;;;;;;5007395;28;20328;-71
2024/02/16 04:20:16;;;;;;;1999.90;999.90;;;;;;;;;;5007024;28;20311;-70
2024/02/16 04:23:01;;;;;;;1999.90;999.90;;;;;;;;;;5009772;28;20426;-69
2024/02/16 04:25:46;;;;;;;1999.90;999.90;;;;;;;;;;5011458;28;20462;-70
2024/02/16 04:28:30;;;;;;;1999.90;999.90;;;;;;;;;;4998807;28;20914;-70
2024/02/16 04:31:15;;;;;;;1999.90;999.90;;;;;;;;;;5005922;28;20212;-70
2024/02/16 04:34:01;;;;;;;1999.90;999.90;;;;;;;;;;5012761;28;20227;-70
2024/02/16 04:36:47;;;;;;;1999.90;999.90;;;;;;;;;;5012930;28;20701;-70
2024/02/16 04:39:32;;;;;;;1999.90;999.90;;;;;;;;;;5008773;28;20447;-70
2024/02/16 04:42:17;;;;;;;1999.90;999.90;;;;;;;;;;4999935;28;20596;-70
2024/02/16 04:45:02;;;;;;;1999.90;999.90;;;;;;;;;;5005430;28;20270;-70
2024/02/16 04:47:48;;;;;;;1999.90;999.90;;;;;;;;;;5004730;28;20707;-70
2024/02/16 04:50:33;;;;;;;1999.90;999.90;;;;;;;;;;5008974;28;20581;-70
2024/02/16 04:53:19;;;;;;;1999.90;999.90;;;;;;;;;;5007256;28;20235;-70
2024/02/16 04:56:04;;;;;;;1999.90;999.90;;;;;;;;;;5012941;28;20210;-69
2024/02/16 04:58:49;;;;;;;1999.90;999.90;;;;;;;;;;5005632;28;20343;-70
2024/02/16 05:01:34;;;;;;;1999.90;999.90;;;;;;;;;;5014219;28;20246;-70
2024/02/16 05:04:19;;;;;;;1999.90;999.90;;;;;;;;;;5026390;28;20225;-70
2024/02/16 05:07:04;;;;;;;1999.90;999.90;;;;;;;;;;5033435;28;20619;-70
2024/02/16 05:09:55;;;;;;;1999.90;999.90;;;;;;;;;;5032439;28;20256;-70
2024/02/16 05:12:41;;;;;;;1999.90;999.90;;;;;;;;;;5031466;28;20450;-70
2024/02/16 05:15:27;;;;;;;1999.90;999.90;;;;;;;;;;5028157;28;20582;-70
2024/02/16 05:18:13;;;;;;;1999.90;999.90;;;;;;;;;;5025961;28;20211;-70
2024/02/16 05:20:57;;;;;;;1999.90;999.90;;;;;;;;;;5031562;28;20330;-70
2024/02/16 05:23:42;;;;;;;1999.90;999.90;;;;;;;;;;5032068;28;20581;-69
2024/02/16 05:26:29;;;;;;;1999.90;999.90;;;;;;;;;;5032407;28;20748;-70
2024/02/16 05:29:14;;;;;;;1999.90;999.90;;;;;;;;;;5023770;28;20433;-70
2024/02/16 05:31:59;;;;;;;1999.90;999.90;;;;;;;;;;5031220;28;20258;-69
2024/02/16 05:34:44;;;;;;;1999.90;999.90;;;;;;;;;;5031900;28;20210;-69
2024/02/16 05:37:32;;;;;;;1999.90;999.90;;;;;;;;;;5032945;28;20209;-69
2024/02/16 05:40:21;;;;;;;1999.90;999.90;;;;;;;;;;5031822;28;20233;-69
2024/02/16 05:43:07;;;;;;;1999.90;999.90;;;;;;;;;;5032194;28;20292;-69
2024/02/16 05:45:52;;;;;;;1999.90;999.90;;;;;;;;;;5030929;28;20689;-69
2024/02/16 05:48:40;;;;;;;1999.90;999.90;;;;;;;;;;5031067;28;20213;-69
2024/02/16 05:51:25;;;;;;;1999.90;999.90;;;;;;;;;;5025408;28;20206;-69
2024/02/16 05:54:10;;;;;;;1999.90;999.90;;;;;;;;;;5023266;28;20223;-69
2024/02/16 05:56:55;;;;;;;1999.90;999.90;;;;;;;;;;5032535;28;20209;-69
2024/02/16 05:59:42;;;;;;;1999.90;999.90;;;;;;;;;;5031516;28;20213;-69
2024/02/16 06:02:27;;;;;;;1999.90;999.90;;;;;;;;;;5029963;28;20958;-70
2024/02/16 06:05:12;;;;;;;1999.90;999.90;;;;;;;;;;5031519;28;20288;-69
2024/02/16 06:07:58;;;;;;;1999.90;999.90;;;;;;;;;;5032435;28;20613;-70
2024/02/16 06:10:44;;;;;;;1999.90;999.90;;;;;;;;;;5030491;28;20249;-69
2024/02/16 06:13:29;;;;;;;1999.90;999.90;;;;;;;;;;5025726;28;20227;-69
2024/02/16 06:16:16;;;;;;;1999.90;999.90;;;;;;;;;;5024364;28;20226;-69
2024/02/16 06:19:01;;;;;;;1999.90;999.90;;;;;;;;;;5028645;28;20501;-68
2024/02/16 06:21:46;;;;;;;1999.90;999.90;;;;;;;;;;5030993;28;20248;-69
2024/02/16 06:24:31;;;;;;;1999.90;999.90;;;;;;;;;;5031021;28;20288;-69
2024/02/16 06:27:16;;;;;;;1999.90;999.90;;;;;;;;;;5024341;28;20215;-69
2024/02/16 06:30:01;;;;;;;1999.90;999.90;;;;;;;;;;5029923;28;20214;-69
2024/02/16 06:32:48;;;;;;;1999.90;999.90;;;;;;;;;;5031135;28;20237;-70
2024/02/16 06:35:33;;;;;;;1999.90;999.90;;;;;;;;;;5028690;28;20206;-70
2024/02/16 06:38:18;;;;;;;1999.90;999.90;;;;;;;;;;5015390;28;20205;-70
2024/02/16 06:41:03;;;;;;;1999.90;999.90;;;;;;;;;;5030579;28;20206;-70
2024/02/16 06:43:49;;;;;;;1999.90;999.90;;;;;;;;;;5028058;28;20337;-71
2024/02/16 06:46:34;;;;;;;1999.90;999.90;;;;;;;;;;5024715;28;20292;-70
2024/02/16 06:49:20;;;;;;;1999.90;999.90;;;;;;;;;;5027604;28;20210;-70
2024/02/16 06:52:05;;;;;;;1999.90;999.90;;;;;;;;;;5030639;28;20287;-70
2024/02/16 06:54:51;;;;;;;1999.90;999.90;;;;;;;;;;5031285;28;20235;-70
2024/02/16 06:57:36;;;;;;;1999.90;999.90;;;;;;;;;;5023514;28;20319;-70
2024/02/16 07:00:21;;;;;;;1999.90;999.90;;;;;;;;;;5023774;28;20275;-71
2024/02/16 07:03:06;;;;;;;1999.90;999.90;;;;;;;;;;5027836;28;20929;-71
2024/02/16 07:05:52;;;;;;;1999.90;999.90;;;;;;;;;;5031616;28;20217;-70
2024/02/16 07:08:37;;;;;;;1999.90;999.90;;;;;;;;;;5031662;28;20260;-69
2024/02/16 07:11:22;;;;;;;1999.90;999.90;;;;;;;;;;5030243;28;20761;-71
2024/02/16 07:14:08;;;;;;;1999.90;999.90;;;;;;;;;;5031324;28;20357;-71
2024/02/16 07:16:53;;;;;;;1999.90;999.90;;;;;;;;;;5032473;28;20714;-70
2024/02/16 07:19:38;;;;;;;1999.90;999.90;;;;;;;;;;5035147;28;20627;-71
2024/02/16 07:22:24;;;;;;;1999.90;999.90;;;;;;;;;;5027861;28;20729;-70
2024/02/16 07:25:10;;;;;;;1999.90;999.90;;;;;;;;;;5035324;28;20285;-70
2024/02/16 07:27:54;;;;;;;1999.90;999.90;;;;;;;;;;5035328;28;20215;-71
2024/02/16 07:30:39;;;;;;;1999.90;999.90;;;;;;;;;;5035001;28;20203;-71
2024/02/16 07:33:28;;;;;;;1999.90;999.90;;;;;;;;;;5025860;28;20305;-70
2024/02/16 07:36:13;;;;;;;1999.90;999.90;;;;;;;;;;5034156;28;20589;-71
2024/02/16 07:39:00;;;;;;;1999.90;999.90;;;;;;;;;;5034920;28;20230;-70
2024/02/16 07:41:45;;;;;;;1999.90;999.90;;;;;;;;;;5034950;28;20313;-70
2024/02/16 07:44:29;;;;;;;1999.90;999.90;;;;;;;;;;5027336;28;20421;-70
2024/02/16 07:47:15;;;;;;;1999.90;999.90;;;;;;;;;;5035034;28;20216;-70
2024/02/16 07:50:00;;;;;;;1999.90;999.90;;;;;;;;;;5034889;28;20224;-70
2024/02/16 07:52:45;;;;;;;1999.90;999.90;;;;;;;;;;5030245;28;20231;-70
2024/02/16 07:55:31;;;;;;;1999.90;999.90;;;;;;;;;;5028191;28;20298;-70
2024/02/16 07:58:16;;;;;;;1999.90;999.90;;;;;;;;;;5035027;28;20245;-70
2024/02/16 08:01:01;;;;;;;1999.90;999.90;;;;;;;;;;5034299;28;20904;-70
2024/02/16 08:03:46;;;;;;;1999.90;999.90;;;;;;;;;;5014864;28;20204;-70
2024/02/16 08:06:30;;;;;;;1999.90;999.90;;;;;;;;;;5014996;28;20338;-71
2024/02/16 08:09:15;;;;;;;1999.90;999.90;;;;;;;;;;5010558;28;20294;-70
2024/02/16 08:12:05;;;;;;;1999.90;999.90;;;;;;;;;;5003084;28;20731;-70
2024/02/16 08:14:50;;;;;;;1999.90;999.90;;;;;;;;;;5010339;28;20356;-70
2024/02/16 08:17:35;;;;;;;1999.90;999.90;;;;;;;;;;5006497;28;20222;-71
2024/02/16 08:20:21;;;;;;;1999.90;999.90;;;;;;;;;;5002517;28;20223;-70
2024/02/16 08:23:06;;;;;;;1999.90;999.90;;;;;;;;;;5012149;28;20302;-70
2024/02/16 08:25:51;;;;;;;1999.90;999.90;;;;;;;;;;5010148;28;20291;-71
2024/02/16 08:28:39;;;;;;;1999.90;999.90;;;;;;;;;;5004131;28;20209;-68
2024/02/16 08:31:24;;;;;;;1999.90;999.90;;;;;;;;;;5007883;28;20204;-70
2024/02/16 08:34:10;;;;;;;1999.90;999.90;;;;;;;;;;5006080;28;20441;-70
2024/02/16 08:36:55;;;;;;;1999.90;999.90;;;;;;;;;;4996368;28;20218;-71
2024/02/16 08:39:41;;;;;;;1999.90;999.90;;;;;;;;;;5004202;28;20264;-71
2024/02/16 08:42:26;;;;;;;1999.90;999.90;;;;;;;;;;5007455;28;21325;-71
2024/02/16 08:45:13;;;;;;;1999.90;999.90;;;;;;;;;;5005986;28;20225;-70
2024/02/16 08:47:58;;;;;;;1999.90;999.90;;;;;;;;;;5008761;28;20209;-70
2024/02/16 08:50:42;;;;;;;1999.90;999.90;;;;;;;;;;5005261;28;20224;-70
2024/02/16 08:53:27;;;;;;;1999.90;999.90;;;;;;;;;;4999971;28;20404;-70
2024/02/16 08:56:13;;;;;;;1999.90;999.90;;;;;;;;;;5007856;28;20715;-70
2024/02/16 08:58:58;;;;;;;1999.90;999.90;;;;;;;;;;5007442;28;20577;-69
2024/02/16 09:01:44;;;;;;;1999.90;999.90;;;;;;;;;;5005358;28;20240;-69
2024/02/16 09:04:29;;;;;;;1999.90;999.90;;;;;;;;;;5029727;28;20743;-70
2024/02/16 09:07:14;;;;;;;1999.90;999.90;;;;;;;;;;5026872;28;20213;-69
2024/02/16 09:09:58;;;;;;;1999.90;999.90;;;;;;;;;;5029401;28;20268;-68
2024/02/16 09:12:43;;;;;;;1999.90;999.90;;;;;;;;;;5029376;28;20240;-70
2024/02/16 09:15:28;;;;;;;1999.90;999.90;;;;;;;;;;5027674;28;20836;-70
2024/02/16 09:18:14;;;;;;;1999.90;999.90;;;;;;;;;;5027610;28;20249;-70
2024/02/16 09:20:59;;;;;;;1999.90;999.90;;;;;;;;;;5028366;28;20219;-70
2024/02/16 09:23:44;;;;;;;1999.90;999.90;;;;;;;;;;5029363;28;20217;-70
2024/02/16 09:26:30;;;;;;;1999.90;999.90;;;;;;;;;;5029623;28;20402;-68
2024/02/16 09:29:15;;;;;;;1999.90;999.90;;;;;;;;;;5029660;28;20222;-70
2024/02/16 09:32:00;;;;;;;1999.90;999.90;;;;;;;;;;5024099;28;20261;-70
2024/02/16 09:34:46;;;;;;;1999.90;999.90;;;;;;;;;;5026230;28;20284;-70
2024/02/16 09:37:31;;;;;;;1999.90;999.90;;;;;;;;;;5026442;28;20218;-70
2024/02/16 09:40:18;;;;;;;1999.90;999.90;;;;;;;;;;5027579;28;20205;-70
2024/02/16 09:43:03;;;;;;;1999.90;999.90;;;;;;;;;;5030027;28;20237;-70
2024/02/16 09:45:48;;;;;;;1999.90;999.90;;;;;;;;;;5024319;28;20390;-70
2024/02/16 09:48:34;;;;;;;1999.90;999.90;;;;;;;;;;5029593;28;20236;-70
2024/02/16 09:51:20;;;;;;;1999.90;999.90;;;;;;;;;;5027993;28;20224;-70
2024/02/16 09:54:07;;;;;;;1999.90;999.90;;;;;;;;;;5026039;28;20315;-69
2024/02/16 09:56:51;;;;;;;1999.90;999.90;;;;;;;;;;5029782;28;20217;-70
2024/02/16 09:59:37;;;;;;;1999.90;999.90;;;;;;;;;;5029775;28;20267;-70
2024/02/16 10:02:22;;;;;;;1999.90;999.90;;;;;;;;;;5026675;28;20283;-68
2024/02/16 10:05:10;;;;;;;1999.90;999.90;;;;;;;;;;5026834;28;20213;-69
2024/02/16 10:07:57;;;;;;;1999.90;999.90;;;;;;;;;;5024904;28;20217;-70
2024/02/16 10:10:42;;;;;;;1999.90;999.90;;;;;;;;;;5026292;28;20264;-70
2024/02/16 10:13:27;;;;;;;1999.90;999.90;;;;;;;;;;5025932;28;20228;-70
2024/02/16 10:16:12;;;;;;;1999.90;999.90;;;;;;;;;;5027190;28;20432;-69
2024/02/16 10:18:57;;;;;;;1999.90;999.90;;;;;;;;;;5029448;28;20210;-68
2024/02/16 10:21:43;;;;;;;1999.90;999.90;;;;;;;;;;5031203;28;20303;-70
2024/02/16 10:24:29;;;;;;;1999.90;999.90;;;;;;;;;;5030959;28;20232;-70
2024/02/16 10:27:17;;;;;;;1999.90;999.90;;;;;;;;;;5029158;28;20217;-70
2024/02/16 10:30:03;;;;;;;1999.90;999.90;;;;;;;;;;5028888;28;20217;-70
2024/02/16 10:32:48;;;;;;;1999.90;999.90;;;;;;;;;;5030661;28;20233;-70
2024/02/16 10:35:34;;;;;;;1999.90;999.90;;;;;;;;;;5030153;28;20504;-70
2024/02/16 10:38:20;;;;;;;1999.90;999.90;;;;;;;;;;5030850;28;20209;-70
2024/02/16 10:41:07;;;;;;;1999.90;999.90;;;;;;;;;;5030766;28;20230;-69
2024/02/16 10:43:54;;;;;;;1999.90;999.90;;;;;;;;;;5024028;28;20217;-70
2024/02/16 10:46:40;;;;;;;1999.90;999.90;;;;;;;;;;5023959;28;20224;-70
2024/02/16 10:49:25;;;;;;;1999.90;999.90;;;;;;;;;;5029985;28;20275;-70
2024/02/16 10:52:12;;;;;;;1999.90;999.90;;;;;;;;;;5028666;28;20233;-70
2024/02/16 10:54:57;;;;;;;1999.90;999.90;;;;;;;;;;5026369;28;20821;-70
2024/02/16 10:57:45;;;;;;;1999.90;999.90;;;;;;;;;;5024431;28;20216;-70
2024/02/16 11:00:30;;;;;;;1999.90;999.90;;;;;;;;;;5029027;28;20204;-70
2024/02/16 11:03:17;;;;;;;1999.90;999.90;;;;;;;;;;5024043;28;20780;-70
2024/02/16 11:06:12;;;;;;;1999.90;999.90;;;;;;;;;;5026127;28;20374;-70
2024/02/16 11:09:02;;;;;;;1999.90;999.90;;;;;;;;;;5028293;28;20764;-68
2024/02/16 11:11:52;;;;;;;1999.90;999.90;;;;;;;;;;5024418;28;20233;-70
2024/02/16 11:14:39;;;;;;;1999.90;999.90;;;;;;;;;;5029606;28;20295;-70
2024/02/16 11:17:24;;;;;;;1999.90;999.90;;;;;;;;;;5026623;28;20605;-70
2024/02/16 11:20:10;;;;;;;1999.90;999.90;;;;;;;;;;5027531;28;20229;-70
2024/02/16 11:23:05;;;;;;;1999.90;999.90;;;;;;;;;;5028455;28;20236;-70
2024/02/16 11:25:51;;;;;;;1999.90;999.90;;;;;;;;;;5022823;28;20418;-70
2024/02/16 11:28:37;;;;;;;1999.90;999.90;;;;;;;;;;5025653;28;20218;-70
2024/02/16 11:31:23;;;;;;;1999.90;999.90;;;;;;;;;;5024581;28;20217;-71
2024/02/16 11:34:08;;;;;;;1999.90;999.90;;;;;;;;;;5024334;28;20582;-71
2024/02/16 11:36:54;;;;;;;1999.90;999.90;;;;;;;;;;5027117;28;20282;-69
2024/02/16 11:39:40;;;;;;;1999.90;999.90;;;;;;;;;;5028044;28;20217;-70
2024/02/16 11:42:25;;;;;;;1999.90;999.90;;;;;;;;;;5027316;28;20359;-70
2024/02/16 11:45:11;;;;;;;1999.90;999.90;;;;;;;;;;5026197;28;20252;-70
2024/02/16 11:48:09;;;;;;;1999.90;999.90;;;;;;;;;;5028253;28;20752;-71
2024/02/16 11:51:00;;;;;;;1999.90;999.90;;;;;;;;;;5027302;28;20737;-70
2024/02/16 11:53:45;;;;;;;1999.90;999.90;;;;;;;;;;5026066;28;20709;-71
2024/02/16 11:56:31;;;;;;;1999.90;999.90;;;;;;;;;;5025075;28;20276;-70
2024/02/16 11:59:17;;;;;;;1999.90;999.90;;;;;;;;;;5026925;28;20328;-70
2024/02/16 12:02:02;;;;;;;1999.90;999.90;;;;;;;;;;5024094;28;20241;-70
2024/02/16 12:04:50;;;;;;;1999.90;999.90;;;;;;;;;;5029307;28;20205;-70
2024/02/16 12:07:39;;;;;;;1999.90;999.90;;;;;;;;;;5031757;28;20220;-70
2024/02/16 12:10:25;;;;;;;1999.90;999.90;;;;;;;;;;5033146;28;20226;-70
2024/02/16 12:13:10;;;;;;;1999.90;999.90;;;;;;;;;;5027121;28;20304;-69
2024/02/16 12:15:56;;;;;;;1999.90;999.90;;;;;;;;;;5033492;28;20442;-70
2024/02/16 12:18:41;;;;;;;1999.90;999.90;;;;;;;;;;5032342;28;20244;-71
2024/02/16 12:21:31;;;;;;;1999.90;999.90;;;;;;;;;;5031242;28;20291;-71
2024/02/16 12:24:16;;;;;;;1999.90;999.90;;;;;;;;;;5033227;28;20741;-71
2024/02/16 12:27:01;;;;;;;1999.90;999.90;;;;;;;;;;5028176;28;20212;-71
2024/02/16 12:29:46;;;;;;;1999.90;999.90;;;;;;;;;;5033030;28;20209;-70
2024/02/16 12:32:30;;;;;;;1999.90;999.90;;;;;;;;;;5033615;28;20734;-72
2024/02/16 12:35:15;;;;;;;1999.90;999.90;;;;;;;;;;5033059;28;20225;-71
2024/02/16 12:38:01;;;;;;;1999.90;999.90;;;;;;;;;;5029584;28;20217;-71
2024/02/16 12:40:47;;;;;;;1999.90;999.90;;;;;;;;;;5032995;28;20337;-71
2024/02/16 12:43:32;;;;;;;1999.90;999.90;;;;;;;;;;5032617;28;20229;-71
2024/02/16 12:46:17;;;;;;;1999.90;999.90;;;;;;;;;;5033555;28;20583;-71
2024/02/16 12:49:02;;;;;;;1999.90;999.90;;;;;;;;;;5031653;28;20577;-71
2024/02/16 12:51:47;;;;;;;1999.90;999.90;;;;;;;;;;5033228;28;20225;-70
2024/02/16 12:54:34;;;;;;;1999.90;999.90;;;;;;;;;;5031215;28;20198;-70
2024/02/16 12:57:19;;;;;;;1999.90;999.90;;;;;;;;;;5032691;28;20213;-70
2024/02/16 13:00:05;;;;;;;1999.90;999.90;;;;;;;;;;5032525;28;20756;-71
2024/02/16 13:02:49;;;;;;;1999.90;999.90;;;;;;;;;;5033309;28;20256;-70
2024/02/16 13:05:35;;;;;;;1999.90;999.90;;;;;;;;;;5028573;28;20579;-71
2024/02/16 13:08:20;;;;;;;1999.90;999.90;;;;;;;;;;5026789;28;20998;-72
2024/02/16 13:11:06;;;;;;;1999.90;999.90;;;;;;;;;;5033001;28;20208;-71
2024/02/16 13:13:52;;;;;;;1999.90;999.90;;;;;;;;;;5032474;28;20209;-71
2024/02/16 13:16:36;;;;;;;1999.90;999.90;;;;;;;;;;5032329;28;20280;-70
2024/02/16 13:19:21;;;;;;;1999.90;999.90;;;;;;;;;;5029647;28;20701;-71
2024/02/16 13:22:06;;;;;;;1999.90;999.90;;;;;;;;;;5030004;28;20252;-70
2024/02/16 13:24:51;;;;;;;1999.90;999.90;;;;;;;;;;5029737;28;20209;-70
2024/02/16 13:27:38;;;;;;;1999.90;999.90;;;;;;;;;;5028910;28;20213;-70
2024/02/16 13:30:23;;;;;;;1999.90;999.90;;;;;;;;;;5032866;28;20209;-71
2024/02/16 13:33:09;;;;;;;1999.90;999.90;;;;;;;;;;5033124;28;20308;-70
2024/02/16 13:35:54;;;;;;;1999.90;999.90;;;;;;;;;;5032708;28;20279;-71
2024/02/16 13:38:39;;;;;;;1999.90;999.90;;;;;;;;;;5032762;28;20209;-71
2024/02/16 13:41:25;;;;;;;1999.90;999.90;;;;;;;;;;5031846;28;20511;-70
2024/02/16 13:44:12;;;;;;;1999.90;999.90;;;;;;;;;;5033017;28;20209;-71
2024/02/16 13:46:57;;;;;;;1999.90;999.90;;;;;;;;;;5032797;28;20230;-71
2024/02/16 13:49:42;;;;;;;1999.90;999.90;;;;;;;;;;5032760;28;20205;-71
2024/02/16 13:52:27;;;;;;;1999.90;999.90;;;;;;;;;;5032482;28;20233;-70
2024/02/16 13:55:12;;;;;;;1999.90;999.90;;;;;;;;;;5032552;28;20239;-70
2024/02/16 13:57:57;;;;;;;1999.90;999.90;;;;;;;;;;5032772;28;20226;-70
2024/02/16 14:00:43;;;;;;;1999.90;999.90;;;;;;;;;;5031085;28;20395;-70
2024/02/16 14:03:28;;;;;;;1999.90;999.90;;;;;;;;;;5032380;28;20229;-71
2024/02/16 14:06:13;;;;;;;1999.90;999.90;;;;;;;;;;5032525;28;20281;-70
2024/02/16 14:08:58;;;;;;;1999.90;999.90;;;;;;;;;;5032388;28;20213;-68
2024/02/16 14:11:45;;;;;;;1999.90;999.90;;;;;;;;;;5032108;28;20720;-70
2024/02/16 14:14:30;;;;;;;1999.90;999.90;;;;;;;;;;5032481;28;20209;-71
2024/02/16 14:17:16;;;;;;;1999.90;999.90;;;;;;;;;;5032078;28;20229;-70
2024/02/16 14:20:01;;;;;;;1999.90;999.90;;;;;;;;;;5032022;28;20333;-71
2024/02/16 14:22:47;;;;;;;1999.90;999.90;;;;;;;;;;5029900;28;20374;-70
2024/02/16 14:25:31;;;;;;;1999.90;999.90;;;;;;;;;;5030025;28;20259;-70
2024/02/16 14:28:16;;;;;;;1999.90;999.90;;;;;;;;;;5025259;28;20337;-70
2024/02/16 14:31:02;;;;;;;1999.90;999.90;;;;;;;;;;5022933;28;20402;-70
2024/02/16 14:33:48;;;;;;;1999.90;999.90;;;;;;;;;;5027767;28;20210;-70
2024/02/16 14:36:34;;;;;;;1999.90;999.90;;;;;;;;;;5029049;28;20326;-70
2024/02/16 14:39:19;;;;;;;1999.90;999.90;;;;;;;;;;5031390;28;20210;-70
2024/02/16 14:42:04;;;;;;;1999.90;999.90;;;;;;;;;;5030649;28;20861;-70
2024/02/16 14:44:49;;;;;;;1999.90;999.90;;;;;;;;;;5031936;28;20268;-70
2024/02/16 14:47:34;;;;;;;1999.90;999.90;;;;;;;;;;5019887;28;20515;-69
2024/02/16 14:50:21;;;;;;;1999.90;999.90;;;;;;;;;;5015240;28;20218;-70
2024/02/16 14:53:06;;;;;;;1999.90;999.90;;;;;;;;;;5020800;28;20784;-70
2024/02/16 14:55:51;;;;;;;1999.90;999.90;;;;;;;;;;5022565;28;20233;-68
2024/02/16 14:58:36;;;;;;;1999.90;999.90;;;;;;;;;;5024310;28;20208;-71
2024/02/16 15:01:20;;;;;;;1999.90;999.90;;;;;;;;;;5031198;28;20209;-70
2024/02/16 15:04:05;;;;;;;1999.90;999.90;;;;;;;;;;5029528;28;20287;-70
2024/02/16 15:06:52;;;;;;;1999.90;999.90;;;;;;;;;;5021370;28;20592;-70
2024/02/16 15:09:37;;;;;;;1999.90;999.90;;;;;;;;;;5020138;28;20232;-70
2024/02/16 15:12:21;;;;;;;1999.90;999.90;;;;;;;;;;5013739;28;20624;-69
2024/02/16 15:15:07;;;;;;;1999.90;999.90;;;;;;;;;;5031386;28;20752;-70
2024/02/16 15:17:52;;;;;;;1999.90;999.90;;;;;;;;;;5030792;28;20578;-70
2024/02/16 15:20:37;;;;;;;1999.90;999.90;;;;;;;;;;5030611;28;20505;-69
2024/02/16 15:23:23;;;;;;;1999.90;999.90;;;;;;;;;;5025526;28;20230;-69